Time;durP1;ratioP1;P1;durP2;ratioP2;P2;SDS_P1;SDS_P2;PMS_P1;PMS_P2;Temp;Humidity;BMP_temperature;BMP_pressure;BME280_temperature;BME280_humidity;BME280_pressure;Samples;Min_cycle;Max_cycle;Signal;HPM_P1;HPM_P2
2021/12/20 00:00:42;;;;;;;14.40;11.97;;;6.60;99.90;;;;;;5014970;28;20191;-66
2021/12/20 00:03:08;;;;;;;13.50;11.43;;;6.60;99.90;;;;;;5014782;28;20242;-66
2021/12/20 00:05:34;;;;;;;12.17;10.93;;;6.60;99.90;;;;;;5014984;28;20188;-66
2021/12/20 00:08:00;;;;;;;14.00;12.70;;;6.50;99.90;;;;;;5014893;28;20207;-66
2021/12/20 00:10:26;;;;;;;13.80;12.03;;;6.60;99.90;;;;;;5014705;28;20521;-66
2021/12/20 00:12:51;;;;;;;12.67;11.40;;;6.60;99.90;;;;;;5014823;28;20279;-66
2021/12/20 00:15:18;;;;;;;13.10;11.70;;;6.60;99.90;;;;;;5014831;28;20385;-66
2021/12/20 00:17:45;;;;;;;14.03;12.70;;;6.70;99.90;;;;;;5014950;28;20176;-66
2021/12/20 00:20:11;;;;;;;17.40;13.37;;;6.60;99.90;;;;;;5014544;28;20180;-66
2021/12/20 00:22:37;;;;;;;13.43;12.03;;;6.60;99.90;;;;;;5014387;28;20242;-66
2021/12/20 00:25:04;;;;;;;12.13;11.13;;;6.70;99.90;;;;;;5013214;28;20263;-66
2021/12/20 00:27:30;;;;;;;16.23;11.70;;;6.70;99.90;;;;;;5014780;28;20622;-66
2021/12/20 00:29:55;;;;;;;11.40;10.30;;;6.70;99.90;;;;;;5014330;28;20215;-66
2021/12/20 00:32:21;;;;;;;11.00;10.10;;;6.70;99.90;;;;;;5014215;28;20676;-66
2021/12/20 00:34:47;;;;;;;10.77;9.77;;;6.70;99.90;;;;;;5014264;28;20203;-67
2021/12/20 00:42:44;;;;;;;12.50;11.40;;;6.70;99.90;;;;;;5014822;28;20290;-66
2021/12/20 00:45:11;;;;;;;13.07;10.63;;;6.60;99.90;;;;;;5014423;28;20259;-66
2021/12/20 00:47:37;;;;;;;11.03;10.03;;;6.60;99.90;;;;;;5014455;28;20571;-66
2021/12/20 00:50:04;;;;;;;11.20;10.30;;;6.60;99.90;;;;;;5013937;28;20204;-66
2021/12/20 00:52:30;;;;;;;11.43;10.60;;;6.60;99.90;;;;;;5013670;28;20200;-66
2021/12/20 00:54:56;;;;;;;11.77;10.67;;;6.60;99.90;;;;;;5013883;28;20688;-66
2021/12/20 00:57:21;;;;;;;11.10;10.10;;;6.70;99.90;;;;;;5014320;28;20653;-66
2021/12/20 00:59:47;;;;;;;14.43;10.30;;;6.70;99.90;;;;;;5014261;28;20211;-67
2021/12/20 01:02:13;;;;;;;11.43;9.53;;;6.70;99.90;;;;;;5013547;28;20352;-66
2021/12/20 01:04:38;;;;;;;10.13;9.30;;;6.70;99.90;;;;;;5012586;28;20556;-66
2021/12/20 01:07:04;;;;;;;10.13;9.30;;;6.70;99.90;;;;;;5012621;28;20184;-66
2021/12/20 01:09:29;;;;;;;10.77;9.67;;;6.70;99.90;;;;;;5013672;28;20548;-65
2021/12/20 01:12:02;;;;;;;10.50;9.40;;;6.70;99.90;;;;;;5013603;28;20206;-66
2021/12/20 01:14:31;;;;;;;11.40;9.30;;;6.70;99.90;;;;;;5013544;28;20176;-66
2021/12/20 01:17:02;;;;;;;10.97;10.07;;;6.70;99.90;;;;;;5013693;28;20187;-66
2021/12/20 01:19:28;;;;;;;10.93;10.07;;;6.60;99.90;;;;;;5013866;28;20172;-65
2021/12/20 01:21:54;;;;;;;11.07;10.10;;;6.60;99.90;;;;;;5012031;28;20223;-67
2021/12/20 01:24:19;;;;;;;10.67;9.67;;;6.60;99.90;;;;;;5013462;28;20630;-66
2021/12/20 01:26:45;;;;;;;10.13;9.23;;;6.70;99.90;;;;;;5013522;28;20610;-67
2021/12/20 01:29:11;;;;;;;10.60;9.20;;;6.60;99.90;;;;;;5013398;28;20203;-67
2021/12/20 01:31:36;;;;;;;10.30;9.17;;;6.60;99.90;;;;;;5013411;28;20552;-66
2021/12/20 01:34:02;;;;;;;9.83;9.03;;;6.60;99.90;;;;;;5013186;28;20175;-68
2021/12/20 01:36:28;;;;;;;10.97;9.90;;;6.50;99.90;;;;;;5013682;28;20536;-66
2021/12/20 01:38:53;;;;;;;12.00;10.97;;;6.50;99.90;;;;;;5013333;28;20168;-65
2021/12/20 01:41:19;;;;;;;11.70;10.90;;;6.60;99.90;;;;;;5012417;28;20190;-67
2021/12/20 01:43:45;;;;;;;11.93;10.90;;;6.50;99.90;;;;;;4996827;28;20216;-66
2021/12/20 01:46:10;;;;;;;12.10;10.87;;;6.50;99.90;;;;;;4990641;28;20635;-66
2021/12/20 01:48:37;;;;;;;13.13;11.80;;;6.50;99.90;;;;;;4993641;28;20259;-66
2021/12/20 01:53:31;;;;;;;11.33;10.47;;;6.60;99.90;;;;;;5012843;28;20198;-66
2021/12/20 01:55:57;;;;;;;10.50;9.63;;;6.60;99.90;;;;;;5012577;28;20194;-66
2021/12/20 01:58:24;;;;;;;9.83;9.10;;;6.50;99.90;;;;;;5012854;28;20259;-68
2021/12/20 02:03:43;;;;;;;9.53;8.83;;;6.50;99.90;;;;;;5012725;28;20287;-67
2021/12/20 02:06:22;;;;;;;9.50;8.80;;;6.50;99.90;;;;;;5012919;28;20179;-66
2021/12/20 02:08:48;;;;;;;9.67;8.60;;;6.50;99.90;;;;;;5012489;28;20204;-66
2021/12/20 02:11:13;;;;;;;10.07;9.07;;;6.50;99.90;;;;;;5012695;28;20234;-68
2021/12/20 02:13:41;;;;;;;13.47;8.40;;;6.50;99.90;;;;;;5012580;28;20195;-66
2021/12/20 02:16:07;;;;;;;8.73;8.00;;;6.50;99.90;;;;;;5012503;28;20168;-66
2021/12/20 02:18:34;;;;;;;8.87;8.07;;;6.50;99.90;;;;;;5012221;28;20630;-66
2021/12/20 02:20:59;;;;;;;9.07;8.13;;;6.50;99.90;;;;;;5012245;28;20212;-66
2021/12/20 02:23:26;;;;;;;9.00;8.07;;;6.40;99.90;;;;;;5012036;28;20264;-66
2021/12/20 02:25:51;;;;;;;8.93;8.13;;;6.50;99.90;;;;;;5012481;28;20178;-66
2021/12/20 02:28:20;;;;;;;10.33;9.60;;;6.50;99.90;;;;;;5012214;28;20212;-66
2021/12/20 02:38:44;;;;;;;8.87;8.17;;;6.60;99.90;;;;;;5012316;28;20242;-66
2021/12/20 02:41:16;;;;;;;10.87;10.00;;;6.50;99.90;;;;;;5012002;28;20184;-66
2021/12/20 02:44:22;;;;;;;10.70;9.97;;;6.50;99.90;;;;;;5011989;28;20660;-67
2021/12/20 02:49:20;;;;;;;11.07;10.30;;;6.50;99.90;;;;;;5012231;28;20200;-66
2021/12/20 02:51:47;;;;;;;11.67;10.77;;;6.50;99.90;;;;;;5011824;28;20250;-66
2021/12/20 02:54:14;;;;;;;10.47;9.57;;;6.50;99.90;;;;;;5011470;28;20543;-66
2021/12/20 02:56:41;;;;;;;10.40;9.57;;;6.50;99.90;;;;;;5011684;28;20183;-66
2021/12/20 02:59:07;;;;;;;10.43;9.73;;;6.50;99.90;;;;;;5011990;28;20219;-66
2021/12/20 03:01:34;;;;;;;9.23;8.50;;;6.50;99.90;;;;;;5010410;28;20186;-66
2021/12/20 03:04:00;;;;;;;10.27;9.30;;;6.50;99.90;;;;;;5011599;28;20187;-66
2021/12/20 03:06:35;;;;;;;9.47;8.80;;;6.50;99.90;;;;;;5011507;28;20184;-66
2021/12/20 03:09:01;;;;;;;9.93;9.00;;;6.50;99.90;;;;;;5011860;28;20676;-66
2021/12/20 03:11:27;;;;;;;9.17;8.57;;;6.50;99.90;;;;;;5011607;28;20172;-67
2021/12/20 03:14:05;;;;;;;9.73;8.93;;;6.50;99.90;;;;;;5010268;28;20176;-67
2021/12/20 03:16:31;;;;;;;9.47;8.70;;;6.50;99.90;;;;;;5011572;28;20204;-65
2021/12/20 03:18:56;;;;;;;9.57;8.73;;;6.50;99.90;;;;;;5011796;28;20231;-66
2021/12/20 03:21:22;;;;;;;12.20;9.40;;;6.50;99.90;;;;;;5011347;28;20187;-67
2021/12/20 03:23:47;;;;;;;9.30;8.60;;;6.50;99.90;;;;;;5011854;28;20310;-67
2021/12/20 03:26:13;;;;;;;10.90;8.10;;;6.40;99.90;;;;;;5009871;28;20654;-67
2021/12/20 03:28:39;;;;;;;11.10;8.47;;;6.40;99.90;;;;;;5010507;28;20200;-67
2021/12/20 03:31:04;;;;;;;8.90;8.00;;;6.50;99.90;;;;;;5015067;28;20990;-66
2021/12/20 03:33:30;;;;;;;9.80;8.87;;;6.50;99.90;;;;;;5015375;28;20192;-66
2021/12/20 03:35:55;;;;;;;8.87;8.23;;;6.40;99.90;;;;;;5015484;28;20261;-66
2021/12/20 03:38:21;;;;;;;9.07;8.27;;;6.40;99.90;;;;;;5015787;28;20180;-66
2021/12/20 03:40:47;;;;;;;13.13;8.37;;;6.40;99.90;;;;;;5015272;28;20613;-66
2021/12/20 03:43:13;;;;;;;9.47;8.80;;;6.50;99.90;;;;;;5015056;28;20211;-67
2021/12/20 03:45:40;;;;;;;9.83;9.10;;;6.40;99.90;;;;;;5014304;28;20290;-67
2021/12/20 03:48:06;;;;;;;9.70;8.67;;;6.40;99.90;;;;;;5015100;28;20616;-66
2021/12/20 03:50:32;;;;;;;8.30;7.80;;;6.40;99.90;;;;;;5015318;28;20184;-67
2021/12/20 03:52:57;;;;;;;8.87;8.17;;;6.40;99.90;;;;;;5014687;28;20391;-66
2021/12/20 03:55:23;;;;;;;9.20;8.43;;;6.40;99.90;;;;;;5015638;28;20616;-66
2021/12/20 03:57:49;;;;;;;9.40;8.80;;;6.40;99.90;;;;;;5014882;28;20254;-67
2021/12/20 04:00:15;;;;;;;10.80;9.07;;;6.50;99.90;;;;;;5015371;28;20396;-65
2021/12/20 04:02:45;;;;;;;8.90;8.00;;;6.50;99.90;;;;;;5014428;28;20262;-66
2021/12/20 04:05:12;;;;;;;9.60;8.87;;;6.50;99.90;;;;;;5013300;28;20184;-66
2021/12/20 04:07:38;;;;;;;8.73;8.03;;;6.50;99.90;;;;;;5015217;28;20200;-66
2021/12/20 04:10:05;;;;;;;10.93;8.70;;;6.60;99.90;;;;;;5014691;28;20184;-66
2021/12/20 04:12:31;;;;;;;12.33;7.97;;;6.60;99.90;;;;;;5014392;28;20196;-67
2021/12/20 04:14:57;;;;;;;9.23;7.73;;;6.50;99.90;;;;;;5014611;28;20664;-65
2021/12/20 04:17:23;;;;;;;8.50;7.90;;;6.50;99.90;;;;;;5015006;28;20222;-66
2021/12/20 04:19:48;;;;;;;8.97;8.23;;;6.40;99.90;;;;;;5014431;28;20184;-66
2021/12/20 04:22:15;;;;;;;9.37;8.47;;;6.50;99.90;;;;;;5014460;28;20207;-66
2021/12/20 04:24:42;;;;;;;10.23;8.00;;;6.40;99.90;;;;;;4995011;28;20228;-66
2021/12/20 04:27:08;;;;;;;10.40;7.73;;;6.40;99.90;;;;;;4995121;28;20191;-66
2021/12/20 04:29:33;;;;;;;8.87;7.67;;;6.40;99.90;;;;;;5013423;28;20591;-66
2021/12/20 04:31:59;;;;;;;9.43;8.47;;;6.40;99.90;;;;;;5014415;28;20247;-66
2021/12/20 04:34:25;;;;;;;9.67;8.20;;;6.40;99.90;;;;;;5014313;28;20184;-66
2021/12/20 04:36:51;;;;;;;9.10;8.30;;;6.40;99.90;;;;;;5014299;28;20626;-66
2021/12/20 04:39:20;;;;;;;10.00;8.97;;;6.40;99.90;;;;;;5014685;28;20176;-66
2021/12/20 04:41:46;;;;;;;10.33;9.43;;;6.50;99.90;;;;;;5013832;28;20446;-66
2021/12/20 04:44:11;;;;;;;13.73;9.90;;;6.50;99.90;;;;;;5014219;28;20188;-64
2021/12/20 04:46:37;;;;;;;12.07;9.30;;;6.50;99.90;;;;;;5013977;28;20728;-64
2021/12/20 04:49:03;;;;;;;10.30;9.43;;;6.40;99.90;;;;;;5014141;28;20215;-66
2021/12/20 04:51:29;;;;;;;9.37;8.57;;;6.40;99.90;;;;;;5014223;28;20259;-66
2021/12/20 04:53:55;;;;;;;9.80;7.93;;;6.40;99.90;;;;;;5013827;28;20271;-64
2021/12/20 04:56:21;;;;;;;9.10;8.30;;;6.40;99.90;;;;;;5014260;28;20180;-66
2021/12/20 04:58:46;;;;;;;11.67;7.70;;;6.40;99.90;;;;;;5013704;28;20191;-66
2021/12/20 05:01:12;;;;;;;11.30;7.80;;;6.40;99.90;;;;;;5013863;28;20180;-66
2021/12/20 05:03:38;;;;;;;14.00;8.00;;;6.50;99.90;;;;;;5013970;28;20250;-66
2021/12/20 05:06:03;;;;;;;10.17;9.23;;;6.50;99.90;;;;;;5013717;28;20184;-66
2021/12/20 05:08:34;;;;;;;9.40;8.60;;;6.40;99.90;;;;;;5013653;28;20287;-66
2021/12/20 05:11:04;;;;;;;8.93;8.07;;;6.40;99.90;;;;;;5013671;28;20616;-66
2021/12/20 05:13:29;;;;;;;9.23;8.40;;;6.40;99.90;;;;;;5013911;28;20665;-67
2021/12/20 05:15:55;;;;;;;8.47;7.70;;;6.40;99.90;;;;;;5013791;28;20214;-67
2021/12/20 05:18:21;;;;;;;10.53;8.13;;;6.40;99.90;;;;;;5013697;28;20566;-66
2021/12/20 05:20:46;;;;;;;8.13;7.50;;;6.30;99.90;;;;;;5013342;28;20176;-66
2021/12/20 05:23:12;;;;;;;10.87;8.57;;;6.30;99.90;;;;;;5013262;28;20204;-67
2021/12/20 05:25:38;;;;;;;9.23;8.30;;;6.30;99.90;;;;;;5013524;28;20207;-66
2021/12/20 05:28:04;;;;;;;8.87;7.67;;;6.30;99.90;;;;;;5013413;28;20294;-66
2021/12/20 05:30:30;;;;;;;8.90;8.10;;;6.20;99.90;;;;;;5013368;28;20176;-67
2021/12/20 05:32:56;;;;;;;10.03;8.00;;;6.30;99.90;;;;;;5013048;28;20203;-67
2021/12/20 05:35:22;;;;;;;8.57;7.50;;;6.20;99.90;;;;;;5013540;28;20245;-65
2021/12/20 05:37:48;;;;;;;9.07;8.20;;;6.20;99.90;;;;;;5013539;28;20186;-66
2021/12/20 05:40:16;;;;;;;9.10;8.57;;;6.20;99.90;;;;;;5013357;28;20194;-66
2021/12/20 05:42:42;;;;;;;9.50;8.10;;;6.20;99.90;;;;;;5012773;28;20208;-67
2021/12/20 05:45:10;;;;;;;11.30;7.97;;;6.30;99.90;;;;;;5012850;28;20202;-66
2021/12/20 05:47:36;;;;;;;8.13;7.53;;;6.30;99.90;;;;;;5013103;28;20211;-66
2021/12/20 05:50:03;;;;;;;8.67;8.00;;;6.30;99.90;;;;;;5013135;28;20263;-66
2021/12/20 05:52:29;;;;;;;10.27;7.20;;;6.30;99.90;;;;;;5011715;28;20204;-66
2021/12/20 05:54:54;;;;;;;8.27;7.73;;;6.30;99.90;;;;;;5012977;28;20711;-66
2021/12/20 05:57:20;;;;;;;9.70;8.53;;;6.30;99.90;;;;;;5012939;28;20176;-65
2021/12/20 05:59:46;;;;;;;9.40;8.57;;;6.30;99.90;;;;;;5013192;28;20180;-66
2021/12/20 06:02:12;;;;;;;11.00;10.10;;;6.30;99.90;;;;;;5012440;28;20274;-67
2021/12/20 06:04:37;;;;;;;10.23;8.93;;;6.40;99.90;;;;;;5012767;28;20180;-67
2021/12/20 06:07:03;;;;;;;9.70;8.30;;;6.40;99.90;;;;;;5012790;28;20235;-65
2021/12/20 06:09:29;;;;;;;9.63;8.63;;;6.40;99.90;;;;;;5011445;28;20208;-67
2021/12/20 06:11:59;;;;;;;13.30;9.27;;;6.50;99.90;;;;;;5012285;28;20973;-66
2021/12/20 06:14:28;;;;;;;10.23;9.20;;;6.50;99.90;;;;;;5012710;28;20203;-66
2021/12/20 06:16:55;;;;;;;10.80;9.10;;;6.50;99.90;;;;;;5012276;28;20206;-66
2021/12/20 06:19:23;;;;;;;10.30;9.30;;;6.50;99.90;;;;;;5012800;28;20168;-65
2021/12/20 06:21:49;;;;;;;13.97;10.00;;;6.60;99.90;;;;;;5012183;28;20192;-65
2021/12/20 06:24:14;;;;;;;15.77;9.90;;;6.60;99.90;;;;;;5012127;28;20188;-66
2021/12/20 06:26:40;;;;;;;9.17;8.33;;;6.60;99.90;;;;;;5012148;28;20191;-66
2021/12/20 06:29:05;;;;;;;10.30;8.73;;;6.60;99.90;;;;;;5012253;28;20243;-66
2021/12/20 06:31:31;;;;;;;10.37;8.50;;;6.50;99.90;;;;;;5010826;28;20180;-66
2021/12/20 06:33:57;;;;;;;8.93;7.97;;;6.40;99.90;;;;;;5012336;28;20650;-66
2021/12/20 06:36:24;;;;;;;9.83;8.40;;;6.40;99.90;;;;;;5012055;28;20176;-66
2021/12/20 06:38:53;;;;;;;10.90;9.83;;;6.30;99.90;;;;;;5011317;28;20669;-66
2021/12/20 06:41:18;;;;;;;9.60;8.77;;;6.40;99.90;;;;;;5011920;28;20169;-66
2021/12/20 06:43:44;;;;;;;10.37;9.33;;;6.40;99.90;;;;;;5012528;28;20180;-66
2021/12/20 06:46:10;;;;;;;9.03;8.33;;;6.40;99.90;;;;;;5012571;28;20203;-66
2021/12/20 06:48:35;;;;;;;10.53;7.93;;;6.30;99.90;;;;;;5011799;28;20216;-66
2021/12/20 06:51:01;;;;;;;9.53;8.63;;;6.30;99.90;;;;;;5012019;28;20172;-65
2021/12/20 06:53:27;;;;;;;9.43;8.53;;;6.50;99.90;;;;;;5011204;28;20215;-66
2021/12/20 06:55:53;;;;;;;10.93;8.30;;;6.40;99.90;;;;;;5011847;28;20176;-67
2021/12/20 06:58:19;;;;;;;10.77;8.37;;;6.40;99.90;;;;;;5012014;28;20210;-67
2021/12/20 07:00:44;;;;;;;10.33;9.33;;;6.40;99.90;;;;;;4997861;28;20602;-66
2021/12/20 07:03:10;;;;;;;12.70;9.10;;;6.40;99.90;;;;;;4991781;28;20279;-66
2021/12/20 07:05:35;;;;;;;10.13;9.37;;;6.40;99.90;;;;;;5004811;28;20720;-67
2021/12/20 07:08:02;;;;;;;11.60;9.83;;;6.40;99.90;;;;;;5011441;28;20208;-68
2021/12/20 07:10:28;;;;;;;10.67;9.63;;;6.30;99.90;;;;;;5011548;28;20208;-67
2021/12/20 07:12:55;;;;;;;11.03;10.13;;;6.40;99.90;;;;;;5010597;28;20223;-66
2021/12/20 07:15:22;;;;;;;10.27;9.27;;;6.40;99.90;;;;;;5011551;28;20210;-66
2021/12/20 07:17:48;;;;;;;11.07;10.03;;;6.40;99.90;;;;;;5011455;28;20624;-66
2021/12/20 07:20:14;;;;;;;10.90;9.90;;;6.30;99.90;;;;;;5007798;28;20272;-66
2021/12/20 07:22:39;;;;;;;10.37;9.50;;;6.30;99.90;;;;;;4991558;28;20192;-66
2021/12/20 07:25:05;;;;;;;8.90;8.23;;;6.30;99.90;;;;;;5001695;28;20345;-66
2021/12/20 07:27:31;;;;;;;10.03;9.03;;;6.30;99.90;;;;;;5011766;28;20196;-66
2021/12/20 07:29:58;;;;;;;9.10;8.27;;;6.20;99.90;;;;;;5010012;28;20226;-66
2021/12/20 07:32:24;;;;;;;9.90;8.63;;;6.20;99.90;;;;;;5011109;28;20271;-66
2021/12/20 07:34:49;;;;;;;11.47;8.60;;;6.20;99.90;;;;;;5009066;28;20753;-66
2021/12/20 07:37:15;;;;;;;10.30;8.43;;;6.10;99.90;;;;;;5009806;28;20207;-66
2021/12/20 07:39:41;;;;;;;10.73;8.40;;;6.20;99.90;;;;;;5011096;28;20184;-66
2021/12/20 07:42:07;;;;;;;8.90;7.87;;;6.20;99.90;;;;;;5010985;28;20297;-66
2021/12/20 07:44:33;;;;;;;9.60;8.73;;;6.20;99.90;;;;;;5011207;28;20188;-66
2021/12/20 07:46:58;;;;;;;12.93;8.90;;;6.20;99.90;;;;;;5010854;28;20218;-66
2021/12/20 07:49:24;;;;;;;10.57;9.57;;;6.20;99.90;;;;;;5011344;28;20370;-67
2021/12/20 07:51:51;;;;;;;12.40;8.60;;;6.20;99.90;;;;;;5010390;28;20269;-66
2021/12/20 07:54:18;;;;;;;8.70;7.53;;;6.20;99.90;;;;;;5011318;28;20539;-67
2021/12/20 07:56:43;;;;;;;9.23;8.03;;;6.20;99.90;;;;;;5011233;28;20180;-66
2021/12/20 07:59:09;;;;;;;9.17;8.37;;;6.30;99.90;;;;;;5011392;28;20191;-67
2021/12/20 08:01:35;;;;;;;13.17;9.23;;;6.30;99.90;;;;;;5011375;28;20295;-67
2021/12/20 08:04:02;;;;;;;15.00;9.80;;;6.30;99.90;;;;;;5010972;28;20695;-67
2021/12/20 08:06:28;;;;;;;11.00;9.87;;;6.30;99.90;;;;;;5005030;28;20586;-66
2021/12/20 08:08:54;;;;;;;10.00;9.20;;;6.30;99.90;;;;;;5003490;28;20204;-66
2021/12/20 08:11:20;;;;;;;10.97;9.97;;;6.20;99.90;;;;;;5011062;28;20203;-66
2021/12/20 08:13:45;;;;;;;13.20;8.70;;;6.20;99.90;;;;;;5008916;28;20177;-67
2021/12/20 08:16:12;;;;;;;10.27;8.63;;;6.10;99.90;;;;;;5012802;28;20212;-66
2021/12/20 08:18:43;;;;;;;9.60;7.87;;;6.10;99.90;;;;;;5014827;28;20187;-66
2021/12/20 08:21:09;;;;;;;11.57;8.67;;;6.10;99.90;;;;;;5014641;28;20195;-68
2021/12/20 08:23:35;;;;;;;15.77;9.67;;;6.00;99.90;;;;;;5014284;28;20211;-66
2021/12/20 08:26:01;;;;;;;10.60;8.07;;;6.00;99.90;;;;;;5013856;28;20191;-66
2021/12/20 08:28:27;;;;;;;7.50;6.80;;;5.90;99.90;;;;;;5013107;28;20204;-69
2021/12/20 08:30:53;;;;;;;9.43;8.13;;;5.90;99.90;;;;;;5013373;28;20482;-65
2021/12/20 08:33:19;;;;;;;14.63;9.00;;;5.80;99.90;;;;;;5013898;28;20200;-66
2021/12/20 08:35:49;;;;;;;8.57;7.77;;;5.80;99.90;;;;;;5014392;28;20709;-67
2021/12/20 08:38:18;;;;;;;12.90;8.67;;;5.80;99.90;;;;;;5012670;28;20199;-67
2021/12/20 08:40:45;;;;;;;7.97;7.27;;;5.70;99.90;;;;;;5013979;28;20199;-65
2021/12/20 08:43:10;;;;;;;9.70;8.50;;;5.70;99.90;;;;;;5011988;28;20215;-66
2021/12/20 08:45:36;;;;;;;11.70;8.97;;;5.60;99.90;;;;;;5012763;28;20180;-65
2021/12/20 08:48:02;;;;;;;10.43;8.63;;;5.60;99.90;;;;;;5013065;28;20286;-66
2021/12/20 08:50:28;;;;;;;15.83;10.07;;;5.60;99.90;;;;;;5013028;28;20184;-65
2021/12/20 08:52:54;;;;;;;10.03;9.20;;;5.50;99.90;;;;;;5013467;28;20262;-67
2021/12/20 08:55:20;;;;;;;11.00;9.27;;;5.50;99.90;;;;;;5013445;28;20409;-65
2021/12/20 08:57:46;;;;;;;15.00;10.47;;;5.50;99.90;;;;;;5014151;28;20176;-67
2021/12/20 09:00:16;;;;;;;13.17;10.40;;;5.60;99.90;;;;;;5012627;28;20191;-66
2021/12/20 09:02:42;;;;;;;13.07;9.73;;;5.80;99.90;;;;;;5013309;28;20258;-66
2021/12/20 09:05:08;;;;;;;14.57;11.37;;;6.10;99.90;;;;;;5013365;28;20184;-66
2021/12/20 09:07:34;;;;;;;15.77;8.93;;;6.50;99.90;;;;;;5013525;28;20210;-68
2021/12/20 09:09:59;;;;;;;10.20;8.50;;;6.80;99.90;;;;;;5013813;28;20634;-66
2021/12/20 09:12:25;;;;;;;9.77;8.70;;;7.20;99.90;;;;;;5011203;28;20204;-67
2021/12/20 09:14:51;;;;;;;13.63;8.40;;;7.50;99.90;;;;;;5012228;28;20235;-66
2021/12/20 09:17:20;;;;;;;12.80;7.93;;;7.80;99.90;;;;;;5012523;28;20176;-68
2021/12/20 09:19:46;;;;;;;7.93;7.13;;;8.30;99.90;;;;;;5012073;28;20732;-67
2021/12/20 09:22:12;;;;;;;10.53;7.80;;;8.70;99.90;;;;;;5001368;28;20201;-67
2021/12/20 09:24:39;;;;;;;10.30;7.53;;;9.00;99.90;;;;;;5004292;28;20214;-66
2021/12/20 09:27:05;;;;;;;10.23;7.03;;;9.00;99.90;;;;;;5010590;28;20270;-66
2021/12/20 09:29:31;;;;;;;8.97;7.40;;;9.20;99.90;;;;;;5012166;28;20294;-67
2021/12/20 09:31:58;;;;;;;12.77;7.43;;;9.50;99.90;;;;;;5012679;28;20738;-67
2021/12/20 09:34:24;;;;;;;11.30;7.30;;;9.80;99.90;;;;;;5012037;28;20172;-67
2021/12/20 09:36:53;;;;;;;8.90;7.03;;;10.00;99.90;;;;;;5013045;28;20528;-66
2021/12/20 09:39:20;;;;;;;11.60;7.00;;;10.00;99.90;;;;;;4993402;28;20186;-66
2021/12/20 09:44:13;;;;;;;11.07;7.00;;;9.90;99.90;;;;;;5012266;28;20552;-65
2021/12/20 09:46:40;;;;;;;10.17;7.43;;;9.90;99.90;;;;;;5013306;28;20187;-67
2021/12/20 09:49:07;;;;;;;8.83;6.97;;;10.30;99.90;;;;;;5011309;28;20204;-67
2021/12/20 09:51:36;;;;;;;13.07;8.43;;;10.40;99.90;;;;;;4992568;28;20250;-65
2021/12/20 09:54:02;;;;;;;9.20;6.63;;;10.60;99.90;;;;;;4991857;28;20268;-65
2021/12/20 09:56:29;;;;;;;7.40;6.67;;;10.90;99.90;;;;;;5008728;28;20238;-65
2021/12/20 09:58:58;;;;;;;10.60;6.77;;;11.00;99.90;;;;;;5012866;28;20183;-65
2021/12/20 10:01:25;;;;;;;11.60;7.33;;;11.20;99.90;;;;;;5011186;28;20275;-68
2021/12/20 10:03:53;;;;;;;10.23;7.67;;;11.30;99.90;;;;;;5012748;28;20176;-65
2021/12/20 10:06:19;;;;;;;12.30;7.00;;;11.20;99.90;;;;;;5011170;28;20581;-66
2021/12/20 10:08:57;;;;;;;10.63;6.83;;;11.10;99.90;;;;;;5012932;28;20243;-66
2021/12/20 10:11:29;;;;;;;11.03;8.03;;;11.00;99.90;;;;;;5012209;28;20187;-65
2021/12/20 10:14:13;;;;;;;11.77;7.50;;;10.90;99.90;;;;;;5011014;28;20272;-66
2021/12/20 10:16:41;;;;;;;10.67;6.40;;;11.20;99.90;;;;;;5012625;28;20262;-67
2021/12/20 10:19:29;;;;;;;11.73;7.97;;;11.50;99.90;;;;;;5012195;28;20195;-67
2021/12/20 10:21:56;;;;;;;12.50;9.13;;;11.50;99.90;;;;;;5012021;28;20295;-66
2021/12/20 10:24:34;;;;;;;10.63;7.13;;;11.50;99.90;;;;;;5012078;28;20184;-67
2021/12/20 10:27:00;;;;;;;9.13;6.90;;;11.60;99.90;;;;;;4992633;28;20187;-66
2021/12/20 10:29:26;;;;;;;12.67;7.60;;;11.80;99.90;;;;;;4998042;28;20259;-66
2021/12/20 10:31:53;;;;;;;14.23;7.93;;;11.80;99.90;;;;;;5012152;28;20188;-66
2021/12/20 10:34:30;;;;;;;11.07;7.80;;;12.00;99.90;;;;;;5011919;28;20187;-66
2021/12/20 10:36:58;;;;;;;8.93;7.27;;;12.40;99.90;;;;;;5012004;28;20543;-66
2021/12/20 10:39:41;;;;;;;10.00;7.70;;;12.40;99.90;;;;;;5011714;28;20180;-66
2021/12/20 10:42:29;;;;;;;11.20;7.93;;;12.30;99.90;;;;;;5011322;28;20227;-67
2021/12/20 10:45:13;;;;;;;13.83;7.67;;;12.20;99.90;;;;;;5010375;28;20193;-65
2021/12/20 10:47:39;;;;;;;7.83;7.13;;;12.00;99.90;;;;;;5011060;28;20196;-66
2021/12/20 10:50:24;;;;;;;11.50;7.07;;;11.90;99.90;;;;;;5011050;28;20176;-67
2021/12/20 10:52:52;;;;;;;12.37;7.77;;;12.00;99.90;;;;;;5010460;28;20627;-66
2021/12/20 10:55:42;;;;;;;10.07;6.23;;;12.00;99.90;;;;;;5011150;28;20172;-66
2021/12/20 10:58:29;;;;;;;9.37;6.90;;;11.80;99.90;;;;;;5010581;28;20196;-67
2021/12/20 11:01:12;;;;;;;9.30;6.73;;;12.00;99.90;;;;;;5010922;28;20267;-64
2021/12/20 11:03:40;;;;;;;9.57;7.70;;;12.00;99.90;;;;;;5010776;28;20215;-66
2021/12/20 11:11:21;;;;;;;7.83;6.23;;;12.30;99.90;;;;;;5011051;28;20653;-66
2021/12/20 11:13:47;;;;;;;6.97;5.80;;;12.20;99.90;;;;;;5010600;28;20184;-67
2021/12/20 11:16:36;;;;;;;8.07;5.87;;;12.00;99.90;;;;;;5011075;28;20660;-67
2021/12/20 11:19:07;;;;;;;8.53;6.77;;;11.80;99.90;;;;;;4991256;28;20646;-67
2021/12/20 11:21:52;;;;;;;7.97;6.47;;;11.80;99.90;;;;;;5002814;28;20234;-67
2021/12/20 11:24:24;;;;;;;7.60;6.30;;;11.50;99.90;;;;;;5010877;28;20175;-69
2021/12/20 11:26:51;;;;;;;7.40;5.73;;;11.10;99.90;;;;;;5010651;28;20271;-66
2021/12/20 11:29:17;;;;;;;6.73;6.20;;;11.10;99.90;;;;;;5010336;28;20278;-67
2021/12/20 11:31:43;;;;;;;9.00;6.00;;;11.30;99.90;;;;;;5010851;28;20192;-66
2021/12/20 11:34:09;;;;;;;9.07;5.97;;;11.40;99.90;;;;;;5010682;28;20615;-68
2021/12/20 11:36:36;;;;;;;8.80;5.97;;;11.30;99.90;;;;;;5011021;28;20227;-67
2021/12/20 11:39:03;;;;;;;7.93;5.33;;;11.00;99.90;;;;;;5010369;28;20184;-67
2021/12/20 11:41:30;;;;;;;7.00;5.30;;;10.70;99.90;;;;;;4972963;28;1081073;-67
2021/12/20 11:43:57;;;;;;;6.87;6.13;;;10.60;99.90;;;;;;5011274;28;20231;-67
2021/12/20 11:46:40;;;;;;;9.00;6.10;;;10.20;99.90;;;;;;5011086;28;20184;-68
2021/12/20 11:49:07;;;;;;;6.87;6.20;;;10.10;99.90;;;;;;4993548;28;20565;-66
2021/12/20 11:51:55;;;;;;;7.47;6.07;;;10.20;99.90;;;;;;5013964;28;20183;-68
2021/12/20 11:54:41;;;;;;;7.00;6.00;;;10.30;99.90;;;;;;5013454;28;20180;-67
2021/12/20 11:57:33;;;;;;;8.50;6.00;;;10.60;99.90;;;;;;5015419;28;20176;-68
2021/12/20 12:00:06;;;;;;;6.47;5.87;;;10.70;99.90;;;;;;5014962;28;20191;-66
2021/12/20 12:02:38;;;;;;;6.40;5.80;;;10.70;99.90;;;;;;5015121;28;20326;-66
2021/12/20 12:05:07;;;;;;;6.07;5.67;;;10.60;99.90;;;;;;5015019;28;20184;-67
2021/12/20 12:07:35;;;;;;;6.77;6.03;;;10.60;99.90;;;;;;5015116;28;20169;-67
2021/12/20 12:10:14;;;;;;;7.63;6.50;;;10.80;99.90;;;;;;5015006;28;20183;-68
2021/12/20 12:12:43;;;;;;;6.90;5.97;;;11.00;99.90;;;;;;5014371;28;20179;-67
2021/12/20 12:15:17;;;;;;;7.33;5.63;;;11.00;99.90;;;;;;5013383;28;20183;-67
2021/12/20 12:18:03;;;;;;;5.97;5.43;;;11.10;99.90;;;;;;5014697;28;20207;-67
2021/12/20 12:20:52;;;;;;;6.27;5.70;;;11.00;99.90;;;;;;5014249;28;20184;-67
2021/12/20 12:23:26;;;;;;;7.80;6.30;;;10.90;99.90;;;;;;5014664;28;20204;-67
2021/12/20 12:25:54;;;;;;;5.87;5.10;;;11.00;99.90;;;;;;5015252;28;20184;-66
2021/12/20 12:28:25;;;;;;;5.93;5.33;;;10.90;99.90;;;;;;5010280;28;20204;-66
2021/12/20 12:31:00;;;;;;;6.80;6.40;;;10.50;99.90;;;;;;5008856;28;20184;-67
2021/12/20 12:33:28;;;;;;;7.10;6.47;;;10.20;99.90;;;;;;5004743;28;20648;-67
2021/12/20 12:35:56;;;;;;;7.60;6.90;;;9.90;99.90;;;;;;5014697;28;20176;-67
2021/12/20 12:38:35;;;;;;;6.37;5.87;;;9.70;99.90;;;;;;5014294;28;20176;-67
2021/12/20 12:41:07;;;;;;;6.87;6.27;;;9.40;99.90;;;;;;5013141;28;20188;-66
2021/12/20 12:43:56;;;;;;;7.53;6.83;;;9.20;99.90;;;;;;5014488;28;20250;-66
2021/12/20 12:46:36;;;;;;;5.93;5.63;;;9.10;99.90;;;;;;5014690;28;20534;-68
2021/12/20 12:49:21;;;;;;;7.00;6.50;;;9.10;99.90;;;;;;5013973;28;20279;-67
2021/12/20 12:51:50;;;;;;;6.60;6.10;;;9.10;99.90;;;;;;5014258;28;20218;-67
2021/12/20 12:54:34;;;;;;;6.20;5.70;;;9.30;99.90;;;;;;5009262;28;20543;-67
2021/12/20 12:57:11;;;;;;;7.90;5.80;;;9.60;99.90;;;;;;5013613;28;20165;-67
2021/12/20 12:59:56;;;;;;;5.90;5.50;;;9.90;99.90;;;;;;5012970;28;20183;-67
2021/12/20 13:02:38;;;;;;;6.30;5.77;;;9.90;99.90;;;;;;4994473;28;20717;-68
2021/12/20 13:05:06;;;;;;;6.17;5.83;;;10.00;99.90;;;;;;4995358;28;20648;-68
2021/12/20 13:07:43;;;;;;;6.10;5.77;;;9.90;99.90;;;;;;5013091;28;20183;-66
2021/12/20 13:10:29;;;;;;;6.30;6.00;;;9.80;99.90;;;;;;5013944;28;20544;-69
2021/12/20 13:12:59;;;;;;;6.87;6.30;;;9.70;99.90;;;;;;5012604;28;20570;-69
2021/12/20 13:18:12;;;;;;;7.40;7.00;;;9.50;99.90;;;;;;5013918;28;20176;-67
2021/12/20 13:23:18;;;;;;;8.13;7.37;;;9.20;99.90;;;;;;5013347;28;20246;-66
2021/12/20 13:25:56;;;;;;;6.67;6.30;;;9.20;99.90;;;;;;5012427;28;20559;-68
2021/12/20 13:28:28;;;;;;;7.23;6.83;;;9.10;99.90;;;;;;5013804;28;20290;-67